Time,TemperatureF,DewpointF,PressureIn,WindDirection,WindDirectionDegrees,WindSpeedMPH,WindSpeedGustMPH,Humidity,HourlyPrecipIn,Conditions,Clouds,dailyrainin,SolarRadiationWatts/m^2,SoftwareType,DateUTC
2013-02-24 00:00:00,22.0,19.0,-100.00,SW,225,6.0,-999.0,89,-99.99,,,-99.99,0.000000,,2013-02-24 05:00:00,
2013-02-24 00:42:00,22.0,19.0,-100.00,SW,225,6.0,-999.0,89,-99.99,,,-99.99,0.000000,,2013-02-24 05:42:00,
2013-02-24 00:52:00,22.0,19.0,-100.00,SW,225,6.0,-999.0,89,-99.99,,,-99.99,0.000000,,2013-02-24 05:52:00,
2013-02-24 01:00:00,22.0,20.0,-100.00,SW,225,5.0,-999.0,92,-99.99,,,-99.99,0.000000,,2013-02-24 06:00:00,
2013-02-24 01:42:00,22.0,20.0,-100.00,SW,225,5.0,-999.0,92,-99.99,,,-99.99,0.000000,,2013-02-24 06:42:00,
2013-02-24 01:52:00,22.0,20.0,-100.00,SW,225,5.0,-999.0,92,-99.99,,,-99.99,0.000000,,2013-02-24 06:52:00,
2013-02-24 02:00:00,20.0,18.0,-100.00,SW,225,3.0,-999.0,93,-99.99,,,-99.99,0.000000,,2013-02-24 07:00:00,
2013-02-24 02:42:00,20.0,18.0,-100.00,SW,225,3.0,-999.0,93,-99.99,,,-99.99,0.000000,,2013-02-24 07:42:00,
2013-02-24 02:52:00,20.0,18.0,-100.00,SW,225,3.0,-999.0,93,-99.99,,,-99.99,0.000000,,2013-02-24 07:52:00,
2013-02-24 03:00:00,20.0,19.0,-100.00,SW,225,4.0,-999.0,95,-99.99,,,-99.99,0.000000,,2013-02-24 08:00:00,
2013-02-24 03:42:00,20.0,19.0,-100.00,SW,225,4.0,-999.0,95,-99.99,,,-99.99,0.000000,,2013-02-24 08:42:00,
2013-02-24 03:54:00,20.0,19.0,-100.00,SW,225,4.0,-999.0,95,-99.99,,,-99.99,0.000000,,2013-02-24 08:54:00,
2013-02-24 04:00:00,22.0,21.0,-100.00,SW,225,4.0,-999.0,94,-99.99,,,-99.99,0.000000,,2013-02-24 09:00:00,
2013-02-24 04:42:00,22.0,21.0,-100.00,SW,225,4.0,-999.0,94,-99.99,,,-99.99,0.000000,,2013-02-24 09:42:00,
2013-02-24 04:52:00,22.0,21.0,-100.00,SW,225,4.0,-999.0,94,-99.99,,,-99.99,0.000000,,2013-02-24 09:52:00,
2013-02-24 05:00:00,23.0,21.0,-100.00,SW,225,5.0,-999.0,93,-99.99,,,-99.99,0.000000,,2013-02-24 10:00:00,
2013-02-24 05:42:00,23.0,21.0,-100.00,SW,225,5.0,-999.0,93,-99.99,,,-99.99,0.000000,,2013-02-24 10:42:00,
2013-02-24 05:52:00,23.0,21.0,-100.00,SW,225,5.0,-999.0,93,-99.99,,,-99.99,0.000000,,2013-02-24 10:52:00,
2013-02-24 06:00:00,23.0,21.0,-100.00,SW,225,5.0,-999.0,90,-99.99,,,-99.99,0.000000,,2013-02-24 11:00:00,
2013-02-24 06:42:00,23.0,21.0,-100.00,SW,225,5.0,-999.0,90,-99.99,,,-99.99,0.000000,,2013-02-24 11:42:00,
2013-02-24 06:53:00,23.0,21.0,-100.00,SW,225,5.0,-999.0,90,-99.99,,,-99.99,0.000000,,2013-02-24 11:53:00,
2013-02-24 07:00:00,24.0,21.0,-100.00,SW,225,5.0,-999.0,89,-99.99,,,-99.99,0.000000,,2013-02-24 12:00:00,
2013-02-24 07:46:00,24.0,21.0,-100.00,SW,225,5.0,-999.0,89,-99.99,,,-99.99,0.000000,,2013-02-24 12:46:00,
2013-02-24 07:59:00,24.0,21.0,-100.00,SW,225,5.0,-999.0,89,-99.99,,,-99.99,0.000000,,2013-02-24 12:59:00,
2013-02-24 08:00:00,24.0,21.0,-100.00,SW,225,5.0,-999.0,89,-99.99,,,-99.99,5.800000,,2013-02-24 13:00:00,
2013-02-24 08:45:00,24.0,21.0,-100.00,SW,225,5.0,-999.0,89,-99.99,,,-99.99,5.800000,,2013-02-24 13:45:00,
2013-02-24 08:56:00,24.0,21.0,-100.00,SW,225,5.0,-999.0,89,-99.99,,,-99.99,5.800000,,2013-02-24 13:56:00,
2013-02-24 09:00:00,25.0,22.0,-100.00,SW,225,4.0,-999.0,87,-99.99,,,-99.99,80.040001,,2013-02-24 14:00:00,
2013-02-24 09:45:00,25.0,22.0,-100.00,SW,225,4.0,-999.0,87,-99.99,,,-99.99,80.040001,,2013-02-24 14:45:00,
2013-02-24 09:55:00,25.0,22.0,-100.00,SW,225,4.0,-999.0,87,-99.99,,,-99.99,80.040001,,2013-02-24 14:55:00,
2013-02-24 10:00:00,28.0,23.0,-100.00,West,270,3.0,-999.0,83,-99.99,,,-99.99,187.919998,,2013-02-24 15:00:00,
2013-02-24 10:42:00,28.0,23.0,-100.00,West,270,3.0,-999.0,83,-99.99,,,-99.99,187.919998,,2013-02-24 15:42:00,
2013-02-24 10:53:00,28.0,23.0,-100.00,West,270,3.0,-999.0,83,-99.99,,,-99.99,187.919998,,2013-02-24 15:53:00,
2013-02-24 11:00:00,30.0,24.0,-100.00,West,270,4.0,-999.0,79,-99.99,,,-99.99,266.799988,,2013-02-24 16:00:00,
2013-02-24 11:42:00,30.0,24.0,-100.00,West,270,4.0,-999.0,79,-99.99,,,-99.99,266.799988,,2013-02-24 16:42:00,
2013-02-24 11:52:00,30.0,24.0,-100.00,West,270,4.0,-999.0,79,-99.99,,,-99.99,266.799988,,2013-02-24 16:52:00,
2013-02-24 12:00:00,31.0,24.0,-100.00,WNW,292,5.0,-999.0,75,-99.99,,,-99.99,414.119995,,2013-02-24 17:00:00,
2013-02-24 12:42:00,31.0,24.0,-100.00,WNW,292,5.0,-999.0,75,-99.99,,,-99.99,414.119995,,2013-02-24 17:42:00,
2013-02-24 12:53:00,31.0,24.0,-100.00,WNW,292,5.0,-999.0,75,-99.99,,,-99.99,414.119995,,2013-02-24 17:53:00,
2013-02-24 13:00:00,32.0,22.0,-100.00,NW,315,8.0,-999.0,66,-99.99,,,-99.99,351.480011,,2013-02-24 18:00:00,
2013-02-24 13:42:00,32.0,22.0,-100.00,NW,315,8.0,-999.0,66,-99.99,,,-99.99,351.480011,,2013-02-24 18:42:00,
2013-02-24 13:52:00,32.0,22.0,-100.00,NW,315,8.0,-999.0,66,-99.99,,,-99.99,351.480011,,2013-02-24 18:52:00,
2013-02-24 14:00:00,33.0,21.0,-100.00,NW,315,8.0,-999.0,61,0.08,,,-99.99,315.519989,,2013-02-24 19:00:00,
2013-02-24 14:42:00,33.0,21.0,-100.00,NW,315,8.0,-999.0,61,0.08,,,-99.99,315.519989,,2013-02-24 19:42:00,
2013-02-24 14:52:00,33.0,21.0,-100.00,NW,315,8.0,-999.0,61,0.08,,,-99.99,315.519989,,2013-02-24 19:52:00,
2013-02-24 15:00:00,33.0,21.0,-100.00,WNW,292,7.0,-999.0,60,0.11,,,-99.99,281.880005,,2013-02-24 20:00:00,
2013-02-24 15:42:00,33.0,21.0,-100.00,WNW,292,7.0,-999.0,60,0.11,,,-99.99,281.880005,,2013-02-24 20:42:00,
2013-02-24 15:52:00,33.0,21.0,-100.00,WNW,292,7.0,-999.0,60,0.11,,,-99.99,281.880005,,2013-02-24 20:52:00,
2013-02-24 16:00:00,33.0,21.0,-100.00,West,270,4.0,-999.0,61,0.04,,,-99.99,191.399994,,2013-02-24 21:00:00,
2013-02-24 16:42:00,33.0,21.0,-100.00,West,270,4.0,-999.0,61,0.04,,,-99.99,191.399994,,2013-02-24 21:42:00,
2013-02-24 16:52:00,33.0,21.0,-100.00,West,270,4.0,-999.0,61,0.04,,,-99.99,191.399994,,2013-02-24 21:52:00,
2013-02-24 17:00:00,33.0,22.0,-100.00,WNW,292,3.0,-999.0,64,-99.99,,,-99.99,110.199997,,2013-02-24 22:00:00,
2013-02-24 17:42:00,33.0,22.0,-100.00,WNW,292,3.0,-999.0,64,-99.99,,,-99.99,110.199997,,2013-02-24 22:42:00,
2013-02-24 17:52:00,33.0,22.0,-100.00,WNW,292,3.0,-999.0,64,-99.99,,,-99.99,110.199997,,2013-02-24 22:52:00,
2013-02-24 18:00:00,32.0,22.0,-100.00,WNW,292,3.0,-999.0,64,-99.99,,,-99.99,52.200001,,2013-02-24 23:00:00,
2013-02-24 18:42:00,32.0,22.0,-100.00,WNW,292,3.0,-999.0,64,-99.99,,,-99.99,52.200001,,2013-02-24 23:42:00,
2013-02-24 18:52:00,32.0,22.0,-100.00,WNW,292,3.0,-999.0,64,-99.99,,,-99.99,52.200001,,2013-02-24 23:52:00,
2013-02-24 19:00:00,32.0,23.0,-100.00,West,270,1.0,-999.0,70,-99.99,,,-99.99,3.480000,,2013-02-25 00:00:00,
2013-02-24 19:42:00,32.0,23.0,-100.00,West,270,1.0,-999.0,70,-99.99,,,-99.99,3.480000,,2013-02-25 00:42:00,
2013-02-24 19:52:00,32.0,23.0,-100.00,West,270,1.0,-999.0,70,-99.99,,,-99.99,3.480000,,2013-02-25 00:52:00,
2013-02-24 20:00:00,31.0,23.0,-100.00,West,270,1.0,-999.0,72,-99.99,,,-99.99,0.000000,,2013-02-25 01:00:00,
2013-02-24 20:42:00,31.0,23.0,-100.00,West,270,1.0,-999.0,72,-99.99,,,-99.99,0.000000,,2013-02-25 01:42:00,
2013-02-24 20:52:00,31.0,23.0,-100.00,West,270,1.0,-999.0,72,-99.99,,,-99.99,0.000000,,2013-02-25 01:52:00,
2013-02-24 22:00:00,26.0,21.0,-100.00,WSW,247,1.0,-999.0,81,-99.99,,,-99.99,0.000000,,2013-02-25 03:00:00,
2013-02-24 22:42:00,26.0,21.0,-100.00,WSW,247,1.0,-999.0,81,-99.99,,,-99.99,0.000000,,2013-02-25 03:42:00,
2013-02-24 22:52:00,26.0,21.0,-100.00,WSW,247,1.0,-999.0,81,-99.99,,,-99.99,0.000000,,2013-02-25 03:52:00,
2013-02-24 23:00:00,22.0,19.0,-100.00,WSW,247,0.0,-999.0,87,-99.99,,,-99.99,0.000000,,2013-02-25 04:00:00,
2013-02-24 23:42:00,22.0,19.0,-100.00,WSW,247,0.0,-999.0,87,-99.99,,,-99.99,0.000000,,2013-02-25 04:42:00,
2013-02-24 23:52:00,22.0,19.0,-100.00,WSW,247,0.0,-999.0,87,-99.99,,,-99.99,0.000000,,2013-02-25 04:52:00,